Time;durP1;ratioP1;P1;durP2;ratioP2;P2;SDS_P1;SDS_P2;PMS_P1;PMS_P2;Temp;Humidity;BMP_temperature;BMP_pressure;BME280_temperature;BME280_humidity;BME280_pressure;Samples;Min_cycle;Max_cycle;Signal;HPM_P1;HPM_P2
2024/04/16 00:00:39;;;;;;;4.50;1.87;;;9.80;99.90;;;;;;5357710;26;20244;-68
2024/04/16 00:03:05;;;;;;;3.73;2.00;;;9.90;99.90;;;;;;5355500;26;20271;-68
2024/04/16 00:05:31;;;;;;;3.60;1.80;;;9.90;99.90;;;;;;5343122;26;20468;-68
2024/04/16 00:07:57;;;;;;;7.40;1.93;;;9.90;99.90;;;;;;5347526;26;21083;-68
2024/04/16 00:10:23;;;;;;;4.13;1.87;;;9.90;99.90;;;;;;5355706;26;20610;-68
2024/04/16 00:12:49;;;;;;;4.47;2.00;;;9.70;99.90;;;;;;5355595;26;20517;-68
2024/04/16 00:15:15;;;;;;;4.80;2.03;;;9.70;99.90;;;;;;5342724;26;20259;-68
2024/04/16 00:17:40;;;;;;;5.17;2.00;;;9.70;99.90;;;;;;5356642;26;20235;-68
2024/04/16 00:20:06;;;;;;;8.80;2.40;;;9.70;99.90;;;;;;5339720;26;20705;-68
2024/04/16 00:22:33;;;;;;;5.17;2.10;;;9.80;99.90;;;;;;5349809;26;20254;-68
2024/04/16 00:24:58;;;;;;;4.33;1.97;;;9.70;99.90;;;;;;5360069;26;21184;-68
2024/04/16 00:27:24;;;;;;;5.57;1.97;;;9.70;99.90;;;;;;5348925;26;20743;-67
2024/04/16 00:29:49;;;;;;;6.97;2.67;;;9.60;99.90;;;;;;5344539;26;20241;-68
2024/04/16 00:32:15;;;;;;;7.23;2.00;;;9.60;99.90;;;;;;5357444;26;20312;-68
2024/04/16 00:34:41;;;;;;;5.40;2.00;;;9.70;99.90;;;;;;5354072;26;20571;-68
2024/04/16 00:37:06;;;;;;;7.73;2.10;;;9.70;99.90;;;;;;5345228;26;20282;-68
2024/04/16 00:39:32;;;;;;;5.23;2.00;;;9.70;99.90;;;;;;5345319;26;20234;-68
2024/04/16 00:41:57;;;;;;;5.27;1.90;;;9.70;99.90;;;;;;5352066;26;20278;-67
2024/04/16 00:44:27;;;;;;;3.97;1.90;;;9.70;99.90;;;;;;5354228;26;20704;-68
2024/04/16 00:46:54;;;;;;;8.00;2.33;;;9.60;99.90;;;;;;5347548;26;20274;-68
2024/04/16 00:49:20;;;;;;;5.50;2.03;;;9.60;99.90;;;;;;5356887;26;20462;-68
2024/04/16 00:51:46;;;;;;;4.80;2.30;;;9.60;99.90;;;;;;5349506;26;20580;-68
2024/04/16 00:54:11;;;;;;;5.60;2.20;;;9.60;99.90;;;;;;5348356;26;20476;-68
2024/04/16 00:56:39;;;;;;;5.30;2.93;;;9.60;99.90;;;;;;5346907;26;20515;-68
2024/04/16 00:59:05;;;;;;;7.23;2.53;;;9.60;99.90;;;;;;5356255;26;20283;-68
2024/04/16 01:01:31;;;;;;;3.17;2.00;;;9.60;99.90;;;;;;5352831;26;20537;-68
2024/04/16 01:03:57;;;;;;;5.80;3.50;;;9.60;99.90;;;;;;5346640;26;21072;-67
2024/04/16 01:06:23;;;;;;;4.73;2.00;;;9.70;99.90;;;;;;5349679;26;20528;-68
2024/04/16 01:08:49;;;;;;;4.60;2.17;;;9.60;99.90;;;;;;5353879;26;20234;-68
2024/04/16 01:11:24;;;;;;;5.03;2.20;;;9.50;99.90;;;;;;5349152;26;20514;-68
2024/04/16 01:13:50;;;;;;;12.13;2.80;;;9.50;99.90;;;;;;5348253;26;20595;-68
2024/04/16 01:16:15;;;;;;;10.50;3.60;;;9.60;99.90;;;;;;5348398;26;20457;-68
2024/04/16 01:18:41;;;;;;;11.03;2.77;;;9.60;99.90;;;;;;5345714;26;20237;-68
2024/04/16 01:21:06;;;;;;;4.03;2.37;;;9.60;99.90;;;;;;5343822;26;20240;-68
2024/04/16 01:23:32;;;;;;;4.20;2.20;;;9.60;99.90;;;;;;5357292;26;20769;-68
2024/04/16 01:25:57;;;;;;;3.40;2.10;;;9.60;99.90;;;;;;5347021;26;20266;-68
2024/04/16 01:28:23;;;;;;;4.43;2.07;;;9.60;99.90;;;;;;5355188;26;20281;-68
2024/04/16 01:30:49;;;;;;;4.17;2.07;;;9.60;99.90;;;;;;5356287;26;20259;-68
2024/04/16 01:33:14;;;;;;;5.43;2.30;;;9.60;99.90;;;;;;5364551;26;20973;-68
2024/04/16 01:35:40;;;;;;;5.57;2.70;;;9.70;99.90;;;;;;5345058;26;20227;-68
2024/04/16 01:38:06;;;;;;;6.50;2.53;;;9.70;99.90;;;;;;5351595;26;20321;-68
2024/04/16 01:40:31;;;;;;;3.93;2.17;;;9.70;99.90;;;;;;5354689;26;20464;-68
2024/04/16 01:42:57;;;;;;;10.63;2.60;;;9.80;99.90;;;;;;5347956;26;20267;-68
2024/04/16 01:45:22;;;;;;;5.40;2.20;;;9.90;99.90;;;;;;5347754;26;20302;-68
2024/04/16 01:47:48;;;;;;;5.17;2.50;;;9.90;99.90;;;;;;5353179;26;20291;-68
2024/04/16 01:50:14;;;;;;;4.00;2.30;;;9.90;99.90;;;;;;5359286;26;20239;-68
2024/04/16 01:52:39;;;;;;;6.07;2.77;;;9.90;99.90;;;;;;5349674;26;20283;-67
2024/04/16 01:55:05;;;;;;;5.80;2.63;;;9.80;99.90;;;;;;5347367;26;20310;-68
2024/04/16 01:57:30;;;;;;;9.43;2.50;;;9.80;99.90;;;;;;5345217;26;20231;-68
2024/04/16 01:59:56;;;;;;;6.87;2.30;;;9.80;99.90;;;;;;5345014;26;20247;-68
2024/04/16 02:02:22;;;;;;;6.30;2.40;;;9.70;99.90;;;;;;5346833;26;20352;-68
2024/04/16 02:04:47;;;;;;;6.40;2.77;;;9.80;99.90;;;;;;5347775;26;20231;-68
2024/04/16 02:07:13;;;;;;;7.70;2.40;;;9.90;99.90;;;;;;5348903;26;21099;-68
2024/04/16 02:09:38;;;;;;;4.80;2.37;;;9.90;99.90;;;;;;5348806;26;20573;-68
2024/04/16 02:12:04;;;;;;;9.30;2.83;;;9.90;99.90;;;;;;5353178;26;20292;-68
2024/04/16 02:14:30;;;;;;;9.10;2.53;;;9.70;99.90;;;;;;5345044;26;20393;-68
2024/04/16 02:16:56;;;;;;;6.13;2.80;;;9.70;99.90;;;;;;5345201;26;20920;-68
2024/04/16 02:19:22;;;;;;;5.27;3.00;;;9.70;99.90;;;;;;5341019;26;20616;-68
2024/04/16 02:21:47;;;;;;;6.93;3.10;;;9.60;99.90;;;;;;5342034;26;20340;-68
2024/04/16 02:24:14;;;;;;;5.83;2.33;;;9.50;99.90;;;;;;5347936;26;20243;-68
2024/04/16 02:26:40;;;;;;;8.30;3.10;;;9.50;99.90;;;;;;5345202;26;20239;-68
2024/04/16 02:29:05;;;;;;;6.07;2.60;;;9.40;99.90;;;;;;5352318;26;20865;-68
2024/04/16 02:31:31;;;;;;;8.27;3.07;;;9.40;99.90;;;;;;5346373;26;20265;-68
2024/04/16 02:33:56;;;;;;;7.70;2.63;;;9.40;99.90;;;;;;5351781;26;20239;-68
2024/04/16 02:36:22;;;;;;;8.80;2.50;;;9.40;99.90;;;;;;5349908;26;20230;-68
2024/04/16 02:38:47;;;;;;;6.33;2.60;;;9.30;99.90;;;;;;5349822;26;20238;-68
2024/04/16 02:41:14;;;;;;;10.03;2.87;;;9.30;99.90;;;;;;5352785;26;20260;-68
2024/04/16 02:43:39;;;;;;;10.33;2.57;;;9.10;99.90;;;;;;5348592;26;20776;-68
2024/04/16 02:46:05;;;;;;;7.87;2.47;;;9.00;99.90;;;;;;5378403;26;20847;-68
2024/04/16 02:48:31;;;;;;;10.00;2.57;;;9.00;99.90;;;;;;5363026;26;20281;-68
2024/04/16 02:50:58;;;;;;;13.27;2.80;;;9.00;99.90;;;;;;5361870;26;20277;-68
2024/04/16 02:53:24;;;;;;;13.17;2.90;;;9.10;99.90;;;;;;5350807;26;20235;-68
2024/04/16 02:55:49;;;;;;;9.63;3.07;;;8.90;99.90;;;;;;5348400;26;20572;-68
2024/04/16 02:58:15;;;;;;;10.73;3.03;;;8.90;99.90;;;;;;5353476;26;20234;-68
2024/04/16 03:00:40;;;;;;;8.10;2.83;;;8.80;99.90;;;;;;5344838;26;20716;-68
2024/04/16 03:03:06;;;;;;;8.43;2.77;;;8.80;99.90;;;;;;5344618;26;20235;-68
2024/04/16 03:05:31;;;;;;;7.43;2.50;;;8.80;99.90;;;;;;5347357;26;20242;-68
2024/04/16 03:07:57;;;;;;;11.50;3.10;;;8.70;99.90;;;;;;5345134;26;20227;-68
2024/04/16 03:10:23;;;;;;;6.40;2.77;;;8.70;99.90;;;;;;5344651;26;20293;-68
2024/04/16 03:12:54;;;;;;;3.63;2.00;;;8.70;99.90;;;;;;5342401;26;20231;-68
2024/04/16 03:15:19;;;;;;;8.80;2.67;;;8.70;99.90;;;;;;5347977;26;20239;-68
2024/04/16 03:17:45;;;;;;;8.80;2.90;;;8.70;99.90;;;;;;5348907;26;20511;-68
2024/04/16 03:20:10;;;;;;;8.60;2.60;;;8.60;99.90;;;;;;5347555;26;20239;-68
2024/04/16 03:22:36;;;;;;;10.20;3.10;;;8.70;99.90;;;;;;5354347;26;20249;-68
2024/04/16 03:25:02;;;;;;;5.40;2.50;;;8.70;99.90;;;;;;5349446;26;20719;-68
2024/04/16 03:27:28;;;;;;;6.17;2.70;;;8.70;99.90;;;;;;5355537;26;21184;-68
2024/04/16 03:29:53;;;;;;;7.20;2.80;;;8.60;99.90;;;;;;5353575;26;20477;-68
2024/04/16 03:32:21;;;;;;;7.07;2.60;;;8.60;99.90;;;;;;5349791;26;20278;-68
2024/04/16 03:34:46;;;;;;;5.93;2.63;;;8.60;99.90;;;;;;5347978;26;20347;-68
2024/04/16 03:37:12;;;;;;;7.90;3.30;;;8.60;99.90;;;;;;5351945;26;20477;-68
2024/04/16 03:39:37;;;;;;;12.20;2.30;;;8.60;99.90;;;;;;5349164;26;20226;-68
2024/04/16 03:42:03;;;;;;;5.50;2.60;;;8.70;99.90;;;;;;5344505;26;20303;-68
2024/04/16 03:44:29;;;;;;;5.70;2.80;;;8.70;99.90;;;;;;5350080;26;20234;-68
2024/04/16 03:46:56;;;;;;;11.50;2.60;;;8.80;99.90;;;;;;5347332;26;20227;-68
2024/04/16 03:49:21;;;;;;;6.70;2.60;;;8.80;99.90;;;;;;5356169;26;20356;-68
2024/04/16 03:51:47;;;;;;;9.13;2.77;;;8.80;99.90;;;;;;5344058;26;20552;-68
2024/04/16 03:54:12;;;;;;;8.37;2.90;;;8.70;99.90;;;;;;5344767;26;20286;-68
2024/04/16 03:56:38;;;;;;;6.30;2.67;;;8.70;99.90;;;;;;5357847;26;20280;-68
2024/04/16 03:59:26;;;;;;;13.17;2.30;;;8.80;99.90;;;;;;5345629;26;20331;-68
2024/04/16 04:01:52;;;;;;;6.93;2.77;;;8.70;99.90;;;;;;5343330;26;20242;-68
2024/04/16 04:04:18;;;;;;;7.57;2.83;;;8.70;99.90;;;;;;5348110;26;20478;-67
2024/04/16 04:06:44;;;;;;;10.47;3.00;;;8.70;99.90;;;;;;5351176;26;20530;-68
2024/04/16 04:09:09;;;;;;;10.80;3.77;;;8.70;99.90;;;;;;5341303;26;20238;-68
2024/04/16 04:11:35;;;;;;;6.90;2.43;;;8.70;99.90;;;;;;5348814;26;20281;-68
2024/04/16 04:14:00;;;;;;;6.13;3.23;;;8.70;99.90;;;;;;5345312;26;20788;-68
2024/04/16 04:16:26;;;;;;;6.33;2.77;;;8.80;99.90;;;;;;5354062;26;20567;-68
2024/04/16 04:18:52;;;;;;;7.23;2.40;;;8.70;99.90;;;;;;5352749;26;20242;-68
2024/04/16 04:21:18;;;;;;;11.23;3.30;;;8.70;99.90;;;;;;5353982;26;20567;-68
2024/04/16 04:23:43;;;;;;;6.50;3.30;;;8.80;99.90;;;;;;5355583;26;20458;-68
2024/04/16 04:26:09;;;;;;;6.20;2.40;;;8.80;99.90;;;;;;5350991;26;20504;-68
2024/04/16 04:28:35;;;;;;;7.53;2.73;;;8.80;99.90;;;;;;5358736;26;20240;-68
2024/04/16 04:31:18;;;;;;;7.50;2.90;;;8.80;99.90;;;;;;5354917;26;20301;-68
2024/04/16 04:33:44;;;;;;;9.07;2.70;;;8.70;99.90;;;;;;5356626;26;20540;-67
2024/04/16 04:36:12;;;;;;;11.87;2.87;;;8.80;99.90;;;;;;5345652;26;20524;-67
2024/04/16 04:38:38;;;;;;;5.60;3.03;;;8.70;99.90;;;;;;5339716;26;20466;-67
2024/04/16 04:41:05;;;;;;;9.33;3.23;;;8.80;99.90;;;;;;5343517;26;20554;-67
2024/04/16 04:43:30;;;;;;;8.07;2.90;;;9.00;99.90;;;;;;5350832;26;20468;-67
2024/04/16 04:45:56;;;;;;;8.03;2.47;;;9.00;99.90;;;;;;5356678;26;20516;-67
2024/04/16 04:48:23;;;;;;;13.60;2.93;;;8.90;99.90;;;;;;5347536;26;20223;-67
2024/04/16 04:50:48;;;;;;;10.90;3.23;;;8.90;99.90;;;;;;5344216;26;20227;-67
2024/04/16 04:53:14;;;;;;;5.73;2.87;;;8.80;99.90;;;;;;5351624;26;20528;-67
2024/04/16 04:55:39;;;;;;;9.00;3.00;;;8.80;99.90;;;;;;5362301;26;20230;-67
2024/04/16 04:58:05;;;;;;;6.83;2.73;;;8.80;99.90;;;;;;5349377;26;20234;-67
2024/04/16 05:00:30;;;;;;;13.27;3.27;;;8.80;99.90;;;;;;5356032;26;20241;-68
2024/04/16 05:02:56;;;;;;;9.80;3.83;;;8.80;99.90;;;;;;5351104;26;20234;-67
2024/04/16 05:05:21;;;;;;;7.80;2.90;;;8.70;99.90;;;;;;5352797;26;20801;-68
2024/04/16 05:07:47;;;;;;;11.50;3.23;;;8.70;99.90;;;;;;5347390;26;21033;-67
2024/04/16 05:10:13;;;;;;;7.63;3.27;;;8.70;99.90;;;;;;5346950;26;20227;-67
2024/04/16 05:12:38;;;;;;;8.50;2.90;;;8.70;99.90;;;;;;5351728;26;20261;-67
2024/04/16 05:15:05;;;;;;;10.93;3.70;;;8.70;99.90;;;;;;5347506;26;20631;-67
2024/04/16 05:17:30;;;;;;;6.27;3.90;;;8.80;99.90;;;;;;5356134;26;20356;-67
2024/04/16 05:19:56;;;;;;;10.90;2.80;;;8.70;99.90;;;;;;5353524;26;20473;-67
2024/04/16 05:22:21;;;;;;;9.90;2.90;;;8.80;99.90;;;;;;5353524;26;20239;-67
2024/04/16 05:24:47;;;;;;;9.83;3.90;;;8.90;99.90;;;;;;5357579;26;20235;-67
2024/04/16 05:27:12;;;;;;;10.73;5.67;;;8.90;99.90;;;;;;5347919;26;20418;-67
2024/04/16 05:29:38;;;;;;;6.97;2.80;;;8.90;99.90;;;;;;5356208;26;20230;-68
2024/04/16 05:32:04;;;;;;;8.67;3.70;;;8.90;99.90;;;;;;5345517;26;20273;-68
2024/04/16 05:34:30;;;;;;;11.90;3.30;;;9.00;99.90;;;;;;5343602;26;20774;-68
2024/04/16 05:36:56;;;;;;;8.17;3.50;;;9.00;99.90;;;;;;5353390;26;20234;-68
2024/04/16 05:39:22;;;;;;;4.57;2.63;;;9.10;99.90;;;;;;5351728;26;20513;-68
2024/04/16 05:41:47;;;;;;;9.43;2.83;;;9.00;99.90;;;;;;5350292;26;20238;-68
2024/04/16 05:44:13;;;;;;;8.27;4.00;;;9.10;99.90;;;;;;5348773;26;20840;-67
2024/04/16 05:46:38;;;;;;;5.97;2.67;;;9.10;99.90;;;;;;5360705;26;20570;-68
2024/04/16 05:49:04;;;;;;;15.33;3.53;;;9.10;99.90;;;;;;5334568;26;20243;-68
2024/04/16 05:51:29;;;;;;;7.07;2.90;;;9.00;99.90;;;;;;5345556;26;20270;-67
2024/04/16 05:53:55;;;;;;;9.40;3.00;;;9.00;99.90;;;;;;5344919;26;20276;-68
2024/04/16 05:56:21;;;;;;;8.97;2.90;;;9.00;99.90;;;;;;5353955;26;20287;-67
2024/04/16 05:58:46;;;;;;;11.10;4.30;;;9.10;99.90;;;;;;5354970;26;20304;-67
2024/04/16 06:01:12;;;;;;;9.37;3.63;;;9.10;99.90;;;;;;5352105;26;20877;-67
2024/04/16 06:03:38;;;;;;;9.37;3.03;;;9.10;99.90;;;;;;5346233;26;20228;-68
2024/04/16 06:06:04;;;;;;;7.40;3.10;;;9.00;99.90;;;;;;5353427;26;20230;-67
2024/04/16 06:08:30;;;;;;;15.30;4.17;;;9.10;99.90;;;;;;5352397;26;20457;-67
2024/04/16 06:10:56;;;;;;;15.10;5.30;;;9.00;99.90;;;;;;5345441;26;20528;-67
2024/04/16 06:13:21;;;;;;;7.83;3.07;;;9.10;99.90;;;;;;5353184;26;20239;-67
2024/04/16 06:15:47;;;;;;;10.07;3.47;;;9.20;99.90;;;;;;5340415;26;20659;-68
2024/04/16 06:18:13;;;;;;;12.60;3.17;;;9.30;99.90;;;;;;5358517;26;20227;-67
2024/04/16 06:20:39;;;;;;;6.77;3.30;;;9.40;99.90;;;;;;5347609;26;21351;-67
2024/04/16 06:23:04;;;;;;;6.23;3.10;;;9.30;99.90;;;;;;5346864;26;20278;-67
2024/04/16 06:25:30;;;;;;;5.40;2.70;;;9.20;99.90;;;;;;5354210;26;20488;-67
2024/04/16 06:27:56;;;;;;;11.50;3.40;;;9.20;99.90;;;;;;5344843;26;20246;-67
2024/04/16 06:30:22;;;;;;;8.30;3.20;;;9.10;99.90;;;;;;5340107;26;20231;-67
2024/04/16 06:32:48;;;;;;;6.63;2.47;;;9.10;99.90;;;;;;5350734;26;20484;-67
2024/04/16 06:35:13;;;;;;;10.83;3.40;;;9.20;99.90;;;;;;5349029;26;20231;-67
2024/04/16 06:37:40;;;;;;;16.50;4.90;;;9.20;99.90;;;;;;5355192;26;20289;-67
2024/04/16 06:40:06;;;;;;;6.43;2.90;;;9.20;99.90;;;;;;5345506;26;20938;-67
2024/04/16 06:42:32;;;;;;;8.63;4.00;;;9.20;99.90;;;;;;5350326;26;20469;-67
2024/04/16 06:44:57;;;;;;;5.97;2.73;;;9.30;99.90;;;;;;5348592;26;21252;-67
2024/04/16 06:47:23;;;;;;;4.93;2.60;;;9.30;99.90;;;;;;5336953;26;20906;-66
2024/04/16 06:49:49;;;;;;;14.30;4.17;;;9.30;99.90;;;;;;5341291;26;20231;-66
2024/04/16 06:52:14;;;;;;;11.33;3.33;;;9.40;99.90;;;;;;5341640;26;20231;-68
2024/04/16 06:54:41;;;;;;;4.67;3.17;;;9.30;99.90;;;;;;5353190;26;20273;-68
2024/04/16 06:57:06;;;;;;;4.23;2.53;;;9.40;99.90;;;;;;5336647;26;20342;-67
2024/04/16 06:59:32;;;;;;;6.97;2.27;;;9.50;99.90;;;;;;5348235;26;20468;-67
2024/04/16 07:01:57;;;;;;;7.00;2.60;;;9.60;99.90;;;;;;5345887;26;20784;-67
2024/04/16 07:04:23;;;;;;;7.23;2.50;;;9.70;99.90;;;;;;5344684;26;20253;-67
2024/04/16 07:06:48;;;;;;;7.00;2.47;;;9.80;99.90;;;;;;5349179;26;20359;-67
2024/04/16 07:09:14;;;;;;;6.63;2.70;;;9.90;99.90;;;;;;5348773;26;20959;-67
2024/04/16 07:11:39;;;;;;;6.90;2.87;;;9.80;99.90;;;;;;5351350;26;20264;-67
2024/04/16 07:14:05;;;;;;;10.00;2.93;;;9.90;99.90;;;;;;5343054;26;20747;-66
2024/04/16 07:16:31;;;;;;;6.17;2.90;;;9.80;99.90;;;;;;5341096;26;20274;-67
2024/04/16 07:18:57;;;;;;;6.13;2.47;;;9.70;99.90;;;;;;5352509;26;20272;-66
2024/04/16 07:21:22;;;;;;;4.80;2.40;;;9.70;99.90;;;;;;5351040;26;20554;-66
2024/04/16 07:23:48;;;;;;;7.90;2.80;;;9.60;99.90;;;;;;5352519;26;20253;-66
2024/04/16 07:26:13;;;;;;;5.50;2.57;;;9.50;99.90;;;;;;5349390;26;20603;-67
2024/04/16 07:28:39;;;;;;;13.53;2.93;;;9.50;99.90;;;;;;5350582;26;20265;-67
2024/04/16 07:31:04;;;;;;;8.30;2.93;;;9.40;99.90;;;;;;5345614;26;20236;-67
2024/04/16 07:33:30;;;;;;;4.27;2.30;;;9.30;99.90;;;;;;5341247;26;20239;-68
2024/04/16 07:35:56;;;;;;;7.77;3.60;;;9.20;99.90;;;;;;5350810;26;20278;-67
2024/04/16 07:38:21;;;;;;;9.57;3.00;;;9.20;99.90;;;;;;5350684;26;20468;-68
2024/04/16 07:40:56;;;;;;;3.57;2.37;;;9.20;99.90;;;;;;5354109;26;20433;-68
2024/04/16 07:43:23;;;;;;;7.50;2.60;;;9.10;99.90;;;;;;5346297;26;20280;-68
2024/04/16 07:45:49;;;;;;;6.60;2.87;;;9.00;99.90;;;;;;5354967;26;20480;-67
2024/04/16 07:48:15;;;;;;;7.37;2.70;;;8.90;99.90;;;;;;5357558;26;20527;-67
2024/04/16 07:50:42;;;;;;;11.17;2.80;;;9.00;99.90;;;;;;5350792;26;20473;-68
2024/04/16 07:53:08;;;;;;;9.00;2.73;;;8.90;99.90;;;;;;5346330;26;21053;-67
2024/04/16 07:55:34;;;;;;;5.23;2.30;;;9.00;99.90;;;;;;5345758;26;20540;-66
2024/04/16 07:57:59;;;;;;;5.03;3.23;;;9.00;99.90;;;;;;5354521;26;20724;-66
2024/04/16 08:00:28;;;;;;;11.50;2.47;;;8.90;99.90;;;;;;5358391;26;20270;-67
2024/04/16 08:02:57;;;;;;;8.20;2.40;;;8.90;99.90;;;;;;5354779;26;20748;-67
2024/04/16 08:05:23;;;;;;;9.80;2.93;;;8.90;99.90;;;;;;5351155;26;20570;-67
2024/04/16 08:07:48;;;;;;;6.13;2.63;;;9.00;99.90;;;;;;5356140;26;20549;-67
2024/04/16 08:10:14;;;;;;;8.53;2.47;;;9.00;99.90;;;;;;5349126;26;20574;-67
2024/04/16 08:12:40;;;;;;;10.97;3.10;;;9.10;99.90;;;;;;5355441;26;21005;-67
2024/04/16 08:15:06;;;;;;;6.03;2.40;;;9.10;99.90;;;;;;5345744;26;20512;-67
2024/04/16 08:17:34;;;;;;;7.77;3.13;;;9.00;99.90;;;;;;5341613;26;20297;-67
2024/04/16 08:20:00;;;;;;;7.67;3.00;;;9.10;99.90;;;;;;5350767;26;20982;-67
2024/04/16 08:22:25;;;;;;;9.90;2.93;;;9.10;99.90;;;;;;5344002;26;20477;-68
2024/04/16 08:24:51;;;;;;;12.33;3.50;;;9.10;99.90;;;;;;5354358;26;20823;-67
2024/04/16 08:27:20;;;;;;;4.83;2.43;;;9.10;99.90;;;;;;5348068;26;20558;-68
2024/04/16 08:29:46;;;;;;;7.87;2.43;;;9.10;99.90;;;;;;5355154;26;20293;-68
2024/04/16 08:32:11;;;;;;;6.73;2.80;;;9.20;99.90;;;;;;5357707;26;20516;-68
2024/04/16 08:34:40;;;;;;;11.03;3.20;;;9.30;99.90;;;;;;5354097;26;20301;-67
2024/04/16 08:37:06;;;;;;;9.83;2.60;;;9.30;99.90;;;;;;5351960;26;20273;-67
2024/04/16 08:39:33;;;;;;;8.50;3.03;;;9.30;99.90;;;;;;5353614;26;20909;-67
2024/04/16 08:42:02;;;;;;;4.40;2.40;;;9.10;99.90;;;;;;5354545;26;20952;-67
2024/04/16 08:44:29;;;;;;;10.70;3.20;;;9.10;99.90;;;;;;5342823;26;21156;-67
2024/04/16 08:46:59;;;;;;;6.93;2.73;;;8.80;99.90;;;;;;5347173;26;21002;-66
2024/04/16 08:49:29;;;;;;;8.87;3.60;;;8.90;99.90;;;;;;5345172;26;20468;-66
2024/04/16 08:51:55;;;;;;;11.77;3.30;;;9.00;99.90;;;;;;5341516;26;21082;-66
2024/04/16 08:54:22;;;;;;;8.40;3.20;;;9.00;99.90;;;;;;5350419;26;20820;-67
2024/04/16 08:56:49;;;;;;;6.40;2.60;;;9.10;99.90;;;;;;5350698;26;20465;-66
2024/04/16 08:59:15;;;;;;;5.87;2.40;;;9.20;99.90;;;;;;5345482;26;20464;-67
2024/04/16 09:01:42;;;;;;;4.43;2.30;;;9.30;99.90;;;;;;5341474;26;20518;-67
2024/04/16 09:04:08;;;;;;;5.60;2.50;;;9.30;99.90;;;;;;5340549;26;20556;-68
2024/04/16 09:06:34;;;;;;;6.67;2.77;;;9.30;99.90;;;;;;5349133;26;20453;-68
2024/04/16 09:09:02;;;;;;;6.97;2.80;;;9.40;99.90;;;;;;5346126;26;20528;-67
2024/04/16 09:11:30;;;;;;;8.87;2.83;;;9.40;99.90;;;;;;5343099;26;20854;-67
2024/04/16 09:13:56;;;;;;;5.73;2.47;;;9.40;99.90;;;;;;5340078;26;20600;-67
2024/04/16 09:16:21;;;;;;;9.97;2.80;;;9.30;99.90;;;;;;5342145;26;20896;-67
2024/04/16 09:18:47;;;;;;;5.10;2.57;;;9.40;99.90;;;;;;5350228;26;20332;-68
2024/04/16 09:21:13;;;;;;;5.80;3.90;;;9.30;99.90;;;;;;5348280;26;20235;-68
2024/04/16 09:23:39;;;;;;;9.50;3.13;;;9.30;99.90;;;;;;5345326;26;20238;-68
2024/04/16 09:26:14;;;;;;;5.23;2.80;;;9.40;99.90;;;;;;5343170;26;20289;-68
2024/04/16 09:28:49;;;;;;;6.00;2.87;;;9.40;99.90;;;;;;5351009;26;20280;-67
2024/04/16 09:31:18;;;;;;;5.07;2.50;;;9.30;99.90;;;;;;5343864;26;21193;-67
2024/04/16 09:33:44;;;;;;;11.30;3.43;;;9.40;99.90;;;;;;5347669;26;20469;-67
2024/04/16 09:36:14;;;;;;;7.20;3.40;;;9.40;99.90;;;;;;5337492;26;20528;-66
2024/04/16 09:38:48;;;;;;;8.10;2.77;;;9.40;99.90;;;;;;5349626;26;20460;-66
2024/04/16 09:41:14;;;;;;;8.23;3.30;;;9.40;99.90;;;;;;5353543;26;20463;-66
2024/04/16 09:43:41;;;;;;;8.50;3.67;;;9.40;99.90;;;;;;5345243;26;20972;-66
2024/04/16 09:46:11;;;;;;;7.20;3.47;;;9.50;99.90;;;;;;5349575;26;20468;-66
2024/04/16 09:48:42;;;;;;;11.17;3.03;;;9.50;99.90;;;;;;5346046;26;20465;-67
2024/04/16 09:51:08;;;;;;;8.07;4.30;;;9.60;99.90;;;;;;5352819;26;20534;-66
2024/04/16 09:53:39;;;;;;;9.90;3.23;;;9.70;99.90;;;;;;5348934;26;20518;-66
2024/04/16 09:56:05;;;;;;;7.73;2.60;;;9.70;99.90;;;;;;5346860;26;20457;-66
2024/04/16 09:58:33;;;;;;;7.70;2.73;;;9.60;99.90;;;;;;5342582;26;20474;-66
2024/04/16 10:00:59;;;;;;;5.90;2.27;;;9.70;99.90;;;;;;5342553;26;20481;-66
2024/04/16 10:03:27;;;;;;;5.20;2.43;;;9.80;99.90;;;;;;5349565;26;21020;-67
2024/04/16 10:05:56;;;;;;;3.33;2.00;;;9.70;99.90;;;;;;5339819;26;20477;-68
2024/04/16 10:08:26;;;;;;;2.70;1.77;;;9.70;99.90;;;;;;5358973;26;20490;-68
2024/04/16 10:10:58;;;;;;;6.50;2.40;;;9.60;99.90;;;;;;5353059;26;20544;-66
2024/04/16 10:13:27;;;;;;;6.40;2.50;;;9.70;99.90;;;;;;5346506;26;21212;-67
2024/04/16 10:15:53;;;;;;;3.97;2.10;;;9.70;99.90;;;;;;5349037;26;20805;-67
2024/04/16 10:18:20;;;;;;;5.53;2.30;;;9.80;99.90;;;;;;5339488;26;20511;-67
2024/04/16 10:20:50;;;;;;;4.80;2.33;;;9.80;99.90;;;;;;5325442;26;20779;-67
2024/04/16 10:23:19;;;;;;;4.20;2.77;;;9.90;99.90;;;;;;5348071;26;20595;-67
2024/04/16 10:25:49;;;;;;;7.20;2.73;;;10.00;99.90;;;;;;5349580;26;20829;-68
2024/04/16 10:28:33;;;;;;;7.73;2.40;;;10.00;99.90;;;;;;5347664;26;22745;-68
2024/04/16 10:31:10;;;;;;;4.50;2.37;;;9.90;99.90;;;;;;5352170;26;20927;-69
2024/04/16 10:33:38;;;;;;;4.43;2.40;;;9.90;99.90;;;;;;5339638;26;20477;-68
2024/04/16 10:36:05;;;;;;;6.40;2.50;;;10.00;99.90;;;;;;5345976;26;20516;-68
2024/04/16 10:38:35;;;;;;;6.70;2.10;;;9.90;99.90;;;;;;5346653;26;20525;-68
2024/04/16 10:41:01;;;;;;;6.37;2.40;;;9.90;99.90;;;;;;5352975;26;20464;-68
2024/04/16 10:43:27;;;;;;;5.03;2.70;;;9.90;99.90;;;;;;5344498;26;20869;-68
2024/04/16 10:45:54;;;;;;;6.97;2.30;;;9.90;99.90;;;;;;5346990;26;20239;-68
2024/04/16 10:48:21;;;;;;;9.43;2.37;;;9.90;99.90;;;;;;5344670;26;20528;-67
2024/04/16 10:50:48;;;;;;;7.47;2.70;;;9.90;99.90;;;;;;5346112;26;20458;-68
2024/04/16 10:53:17;;;;;;;2.90;2.10;;;9.80;99.90;;;;;;5343018;26;20474;-68
2024/04/16 10:55:43;;;;;;;4.23;2.50;;;9.90;99.90;;;;;;5344243;26;20458;-68
2024/04/16 10:58:13;;;;;;;7.60;2.67;;;10.00;99.90;;;;;;5343361;26;20474;-68
2024/04/16 11:00:39;;;;;;;5.93;2.33;;;10.00;99.90;;;;;;5334828;26;20466;-66
2024/04/16 11:03:05;;;;;;;7.37;2.80;;;9.90;99.90;;;;;;5347218;26;20522;-67
2024/04/16 11:05:31;;;;;;;3.40;2.23;;;9.90;99.90;;;;;;5334150;26;20586;-67
2024/04/16 11:07:57;;;;;;;3.63;2.50;;;9.90;99.90;;;;;;5346066;26;20255;-67
2024/04/16 11:10:22;;;;;;;3.67;2.10;;;10.00;99.90;;;;;;5341556;26;20243;-66
2024/04/16 11:12:48;;;;;;;8.07;3.40;;;10.00;99.90;;;;;;5344738;26;20238;-67
2024/04/16 11:15:14;;;;;;;5.63;2.40;;;10.00;99.90;;;;;;5347876;26;20246;-68
2024/04/16 11:17:39;;;;;;;4.43;2.20;;;9.90;99.90;;;;;;5346059;26;20241;-68
2024/04/16 11:20:08;;;;;;;3.80;2.10;;;10.10;99.90;;;;;;5341032;26;20839;-69
2024/04/16 11:22:34;;;;;;;6.93;2.20;;;10.10;99.90;;;;;;5341449;26;20355;-68
2024/04/16 11:24:59;;;;;;;4.33;2.80;;;10.10;99.90;;;;;;5346129;26;20646;-68
2024/04/16 11:27:25;;;;;;;8.50;2.60;;;10.10;99.90;;;;;;5357863;26;20479;-68
2024/04/16 11:29:51;;;;;;;7.23;2.40;;;10.10;99.90;;;;;;5351058;26;25537;-68
2024/04/16 11:32:18;;;;;;;8.13;2.30;;;10.10;99.90;;;;;;5357070;26;20286;-68
2024/04/16 11:34:45;;;;;;;6.10;2.33;;;10.10;99.90;;;;;;5337713;26;20781;-68
2024/04/16 11:37:11;;;;;;;4.83;2.10;;;10.20;99.90;;;;;;5349271;26;20464;-69
2024/04/16 11:39:38;;;;;;;4.20;2.27;;;10.10;99.90;;;;;;5335120;26;20464;-69
2024/04/16 11:42:05;;;;;;;3.93;2.50;;;10.20;99.90;;;;;;5349068;26;20528;-69
2024/04/16 11:44:34;;;;;;;9.27;2.50;;;10.10;99.90;;;;;;5340795;26;20583;-69
2024/04/16 11:47:00;;;;;;;6.53;2.20;;;10.20;99.90;;;;;;5345290;26;20903;-69
2024/04/16 11:49:25;;;;;;;9.20;2.77;;;10.20;99.90;;;;;;5338118;26;20513;-69
2024/04/16 11:51:51;;;;;;;5.00;2.60;;;10.10;99.90;;;;;;5344332;26;20879;-68
2024/04/16 11:54:17;;;;;;;4.57;2.43;;;10.10;99.90;;;;;;5343152;26;20275;-68
2024/04/16 11:56:42;;;;;;;5.83;3.00;;;10.20;99.90;;;;;;5344261;26;20285;-68
2024/04/16 11:59:09;;;;;;;5.90;2.47;;;10.40;99.90;;;;;;5352291;26;20274;-68
2024/04/16 12:01:35;;;;;;;6.17;2.40;;;10.60;99.90;;;;;;5350203;26;20282;-68
2024/04/16 12:04:01;;;;;;;5.40;3.07;;;11.10;99.90;;;;;;5337437;26;20509;-68
2024/04/16 12:06:26;;;;;;;4.70;2.90;;;11.50;99.90;;;;;;5343324;26;20249;-68
2024/04/16 12:08:52;;;;;;;7.67;3.10;;;11.50;99.90;;;;;;5338892;26;20230;-68
2024/04/16 12:11:18;;;;;;;6.67;2.83;;;11.70;99.90;;;;;;5350196;26;20270;-68
2024/04/16 12:13:43;;;;;;;8.43;3.50;;;12.20;99.90;;;;;;5345384;26;20273;-68
2024/04/16 12:16:33;;;;;;;8.43;3.83;;;12.70;99.90;;;;;;5348344;26;20250;-69
2024/04/16 12:18:59;;;;;;;6.13;2.67;;;12.90;99.90;;;;;;5348082;26;20239;-70
2024/04/16 12:21:25;;;;;;;5.10;2.53;;;13.80;99.90;;;;;;5351247;26;20513;-69
2024/04/16 12:23:52;;;;;;;3.70;2.13;;;13.30;99.90;;;;;;5347867;26;20488;-69
2024/04/16 12:26:18;;;;;;;5.40;2.50;;;13.00;99.90;;;;;;5345886;26;21070;-69
2024/04/16 12:28:45;;;;;;;5.17;2.30;;;12.90;99.90;;;;;;5347457;26;20456;-69
2024/04/16 12:31:11;;;;;;;6.73;2.43;;;12.70;99.90;;;;;;5349191;26;20661;-68
2024/04/16 12:33:37;;;;;;;4.23;2.47;;;12.50;99.90;;;;;;5348234;26;20513;-68
2024/04/16 12:36:03;;;;;;;5.00;2.33;;;12.80;99.90;;;;;;5345900;26;20331;-69
2024/04/16 12:38:30;;;;;;;4.60;2.40;;;13.40;99.90;;;;;;5357973;26;20484;-68
2024/04/16 12:40:56;;;;;;;4.73;2.57;;;14.30;99.90;;;;;;5347859;26;20527;-68
2024/04/16 12:43:22;;;;;;;7.60;2.73;;;14.40;99.90;;;;;;5338443;26;22334;-68
2024/04/16 12:45:48;;;;;;;2.60;2.13;;;14.70;99.90;;;;;;5353773;26;20244;-67
2024/04/16 12:48:20;;;;;;;4.70;3.93;;;15.80;99.90;;;;;;5348998;26;20517;-67